Walum, North Dakota
Current Conditions -  °F | °C
As of 6:15 AM on Thursday 29 Jan 2015 (Local Time) from KBAC Reporting Station
Overcast Overcast  
Wind Chill: 10°   Ceiling: 1400
Heat Index: 23°   Visibility: 10mi
Dew Point: 23°   Wind: 15mph
Humidity: 100%   Direction: 350°N
Pressure: 30.3"   Gusts: NA
Location:  47.2843°N, 98.1073°W
Report Text: KBAC 291215Z AUTO 35013KT 10SM OVC014 M05/M05 A3030 RMK AO2
Loading
Personal Weather Stations






























Interactive Weather Map New forecast layout! Learn more

10-Day Weather Forecast

Advertisements
Track Severe Weather on mobile